Time;durP1;ratioP1;P1;durP2;ratioP2;P2;SDS_P1;SDS_P2;PMS_P1;PMS_P2;Temp;Humidity;BMP_temperature;BMP_pressure;BME280_temperature;BME280_humidity;BME280_pressure;Samples;Min_cycle;Max_cycle;Signal;HPM_P1;HPM_P2
2021/04/04 00:01:03;;;;;;;27.60;13.50;;;3.60;99.90;;;;;;4156803;28;20328;-64
2021/04/04 00:03:05;;;;;;;26.27;12.90;;;3.60;99.90;;;;;;4158419;28;20270;-64
2021/04/04 00:05:08;;;;;;;22.63;11.87;;;3.60;99.90;;;;;;4157049;28;20328;-67
2021/04/04 00:07:09;;;;;;;23.17;12.27;;;3.60;99.90;;;;;;4157999;28;20259;-64
2021/04/04 00:09:10;;;;;;;22.13;11.47;;;3.60;99.90;;;;;;4155447;28;20372;-65
2021/04/04 00:11:11;;;;;;;21.23;11.03;;;3.50;99.90;;;;;;4158187;28;20325;-65
2021/04/04 00:13:12;;;;;;;21.20;11.20;;;3.50;99.90;;;;;;4157038;28;20316;-65
2021/04/04 00:15:15;;;;;;;18.80;10.77;;;3.50;99.90;;;;;;4157867;28;20274;-65
2021/04/04 00:17:17;;;;;;;18.03;10.20;;;3.50;99.90;;;;;;4156254;28;20279;-63
2021/04/04 00:19:18;;;;;;;19.63;10.57;;;3.50;99.90;;;;;;4157668;28;20364;-64
2021/04/04 00:21:19;;;;;;;20.87;11.37;;;3.50;99.90;;;;;;4156059;28;20294;-65
2021/04/04 00:23:21;;;;;;;20.50;10.77;;;3.60;99.90;;;;;;4157993;28;20278;-64
2021/04/04 00:25:22;;;;;;;19.80;11.73;;;3.60;99.90;;;;;;4156582;28;20340;-64
2021/04/04 00:27:23;;;;;;;18.37;10.50;;;3.60;99.90;;;;;;4156963;28;20324;-64
2021/04/04 00:29:24;;;;;;;18.40;10.73;;;3.60;99.90;;;;;;4156714;28;20719;-66
2021/04/04 00:31:26;;;;;;;18.97;11.17;;;3.60;99.90;;;;;;4156245;28;20275;-64
2021/04/04 00:33:27;;;;;;;19.10;10.47;;;3.60;99.90;;;;;;4157381;28;20267;-65
2021/04/04 00:35:28;;;;;;;17.67;9.70;;;3.60;99.90;;;;;;4156618;28;20313;-65
2021/04/04 00:37:29;;;;;;;21.17;11.07;;;3.60;99.90;;;;;;4157439;28;20317;-64
2021/04/04 00:39:30;;;;;;;23.73;12.03;;;3.60;99.90;;;;;;4156339;28;20281;-65
2021/04/04 00:41:31;;;;;;;17.50;10.43;;;3.50;99.90;;;;;;4157775;28;20305;-64
2021/04/04 00:43:33;;;;;;;20.50;10.60;;;3.50;99.90;;;;;;4156453;28;20267;-66
2021/04/04 00:45:39;;;;;;;17.73;10.73;;;3.50;99.90;;;;;;4157235;28;20286;-64
2021/04/04 00:47:40;;;;;;;20.10;11.53;;;3.50;99.90;;;;;;4155863;28;20328;-64
2021/04/04 00:49:41;;;;;;;21.03;10.87;;;3.40;99.90;;;;;;4157080;28;20286;-65
2021/04/04 00:51:42;;;;;;;21.63;11.80;;;3.40;99.90;;;;;;4155900;28;20278;-64
2021/04/04 00:53:44;;;;;;;22.03;12.30;;;3.40;99.90;;;;;;4157402;28;20329;-65
2021/04/04 00:55:45;;;;;;;23.80;12.57;;;3.30;99.90;;;;;;4156082;28;20297;-64
2021/04/04 00:57:46;;;;;;;24.53;12.83;;;3.20;99.90;;;;;;4157116;28;20785;-61
2021/04/04 00:59:47;;;;;;;23.57;12.97;;;3.20;99.90;;;;;;4156232;28;20266;-64
2021/04/04 01:01:49;;;;;;;23.40;13.30;;;3.10;99.90;;;;;;4154707;28;20396;-64
2021/04/04 01:03:50;;;;;;;24.37;12.00;;;3.10;99.90;;;;;;4156936;28;20297;-64
2021/04/04 01:05:54;;;;;;;23.80;13.53;;;3.00;99.90;;;;;;4156405;28;20271;-65
2021/04/04 01:07:57;;;;;;;23.20;12.73;;;3.00;99.90;;;;;;4157117;28;20686;-66
2021/04/04 01:09:58;;;;;;;23.10;13.17;;;3.00;99.90;;;;;;4154603;28;20271;-65
2021/04/04 01:12:11;;;;;;;24.97;13.93;;;3.00;99.90;;;;;;4157407;28;20324;-64
2021/04/04 01:14:20;;;;;;;24.00;13.37;;;2.90;99.90;;;;;;4155992;28;20270;-65
2021/04/04 01:16:28;;;;;;;21.80;11.70;;;2.90;99.90;;;;;;4156744;28;20262;-64
2021/04/04 01:18:41;;;;;;;23.50;13.53;;;2.90;99.90;;;;;;4155696;28;20318;-65
2021/04/04 01:20:48;;;;;;;19.13;11.90;;;2.90;99.90;;;;;;4157359;28;20321;-65
2021/04/04 01:22:58;;;;;;;25.37;13.23;;;2.90;99.90;;;;;;4155301;28;20290;-64
2021/04/04 01:25:08;;;;;;;21.80;12.13;;;2.90;99.90;;;;;;4157355;28;20259;-64
2021/04/04 01:27:23;;;;;;;24.33;12.73;;;2.80;99.90;;;;;;4155226;28;20752;-65
2021/04/04 01:29:27;;;;;;;20.37;12.13;;;2.80;99.90;;;;;;4156576;28;20511;-65
2021/04/04 01:31:29;;;;;;;22.73;13.47;;;2.80;99.90;;;;;;4155239;28;20290;-65
2021/04/04 01:33:32;;;;;;;21.50;11.43;;;2.90;99.90;;;;;;4159585;28;20321;-64
2021/04/04 01:35:35;;;;;;;23.77;12.60;;;2.90;99.90;;;;;;4155995;28;20282;-65
2021/04/04 01:37:39;;;;;;;22.93;12.30;;;2.90;99.90;;;;;;4157000;28;20677;-64
2021/04/04 01:39:44;;;;;;;24.90;13.27;;;2.90;99.90;;;;;;4155368;28;20321;-64
2021/04/04 01:41:47;;;;;;;24.20;12.80;;;2.80;99.90;;;;;;4156956;28;20336;-63
2021/04/04 01:43:51;;;;;;;24.17;12.93;;;2.80;99.90;;;;;;4155477;28;21097;-65
2021/04/04 01:45:53;;;;;;;21.53;11.83;;;2.80;99.90;;;;;;4156934;28;20723;-64
2021/04/04 01:47:55;;;;;;;24.70;13.70;;;2.70;99.90;;;;;;4155716;28;20735;-65
2021/04/04 01:49:56;;;;;;;20.97;11.77;;;2.70;99.90;;;;;;4155562;28;20332;-63
2021/04/04 01:51:59;;;;;;;27.53;13.83;;;2.70;99.90;;;;;;4155382;28;20325;-65
2021/04/04 01:54:04;;;;;;;29.60;15.33;;;2.70;99.90;;;;;;4156329;28;20747;-64
2021/04/04 01:56:06;;;;;;;33.73;17.17;;;2.50;99.90;;;;;;4155508;28;20278;-65
2021/04/04 01:58:09;;;;;;;34.60;16.10;;;2.40;99.90;;;;;;4156010;28;20291;-65
2021/04/04 02:00:13;;;;;;;32.37;16.87;;;2.30;99.90;;;;;;4155709;28;20313;-64
2021/04/04 02:02:15;;;;;;;32.77;15.00;;;2.30;99.90;;;;;;4155483;28;20329;-64
2021/04/04 02:04:17;;;;;;;28.13;15.40;;;2.20;99.90;;;;;;4156463;28;20743;-65
2021/04/04 02:06:19;;;;;;;28.83;14.53;;;2.30;99.90;;;;;;4155759;28;20317;-65
2021/04/04 02:08:22;;;;;;;28.17;14.97;;;2.30;99.90;;;;;;4156668;28;20662;-65
2021/04/04 02:10:26;;;;;;;28.60;15.47;;;2.30;99.90;;;;;;4155164;28;20372;-64
2021/04/04 02:12:29;;;;;;;23.43;13.43;;;2.30;99.90;;;;;;4156727;28;20286;-65
2021/04/04 02:14:30;;;;;;;23.57;13.10;;;2.30;99.90;;;;;;4157917;28;20317;-64
2021/04/04 02:16:31;;;;;;;26.10;13.17;;;2.30;99.90;;;;;;4158285;28;20333;-65
2021/04/04 02:18:33;;;;;;;25.23;12.80;;;2.20;99.90;;;;;;4158468;28;20290;-64
2021/04/04 02:20:36;;;;;;;24.17;13.03;;;2.20;99.90;;;;;;4159820;28;20316;-64
2021/04/04 02:22:38;;;;;;;25.33;12.10;;;2.20;99.90;;;;;;4158330;28;20247;-64
2021/04/04 02:24:40;;;;;;;25.40;13.30;;;2.20;99.90;;;;;;4159379;28;20279;-64
2021/04/04 02:26:41;;;;;;;21.87;12.50;;;2.20;99.90;;;;;;4158390;28;20278;-64
2021/04/04 02:28:42;;;;;;;27.37;14.23;;;2.20;99.90;;;;;;4159256;28;20349;-64
2021/04/04 02:30:43;;;;;;;24.67;12.80;;;2.10;99.90;;;;;;4158347;28;20278;-64
2021/04/04 02:33:01;;;;;;;25.37;13.20;;;2.20;99.90;;;;;;4157798;28;20294;-64
2021/04/04 02:35:05;;;;;;;28.70;14.13;;;2.20;99.90;;;;;;4158607;28;20263;-63
2021/04/04 02:37:11;;;;;;;28.17;14.93;;;2.10;99.90;;;;;;4158953;28;20262;-65
2021/04/04 02:39:21;;;;;;;22.53;13.47;;;2.10;99.90;;;;;;4158604;28;20372;-65
2021/04/04 02:41:22;;;;;;;27.83;15.23;;;2.10;99.90;;;;;;4159336;28;20340;-66
2021/04/04 02:43:27;;;;;;;25.27;13.80;;;2.00;99.90;;;;;;4158699;28;20107;-64
2021/04/04 02:45:29;;;;;;;24.37;13.80;;;2.00;99.90;;;;;;4157554;28;20275;-66
2021/04/04 02:47:54;;;;;;;26.33;14.57;;;2.00;99.90;;;;;;4159061;28;20895;-64
2021/04/04 02:49:57;;;;;;;24.07;12.83;;;2.00;99.90;;;;;;4158399;28;20329;-63
2021/04/04 02:52:02;;;;;;;24.17;14.27;;;2.10;99.90;;;;;;4159259;28;20329;-64
2021/04/04 02:54:04;;;;;;;28.57;14.80;;;2.00;99.90;;;;;;4158112;28;20596;-64
2021/04/04 02:56:08;;;;;;;28.73;15.20;;;2.00;99.90;;;;;;4159271;28;20267;-64
2021/04/04 02:58:10;;;;;;;25.17;14.10;;;1.90;99.90;;;;;;4158178;28;20263;-66
2021/04/04 03:00:15;;;;;;;27.47;14.47;;;1.90;99.90;;;;;;4159054;28;20328;-65
2021/04/04 03:02:19;;;;;;;28.17;14.40;;;1.80;99.90;;;;;;4172990;28;20785;-65
2021/04/04 03:04:23;;;;;;;25.53;14.30;;;1.80;99.90;;;;;;4175309;28;20361;-64
2021/04/04 03:06:26;;;;;;;30.30;15.33;;;1.80;99.90;;;;;;4172887;28;20341;-65
2021/04/04 03:08:28;;;;;;;28.73;15.63;;;1.80;99.90;;;;;;4175585;28;20359;-64
2021/04/04 03:10:34;;;;;;;26.23;14.27;;;1.70;99.90;;;;;;4174187;28;20278;-64
2021/04/04 03:12:37;;;;;;;28.17;15.43;;;1.80;99.90;;;;;;4175707;28;20335;-64
2021/04/04 03:14:40;;;;;;;37.93;16.20;;;1.80;99.90;;;;;;4166195;28;21177;-64
2021/04/04 03:16:41;;;;;;;28.30;15.47;;;1.80;99.90;;;;;;4158935;28;20753;-64
2021/04/04 03:18:44;;;;;;;31.17;15.40;;;1.70;99.90;;;;;;4157330;28;20349;-64
2021/04/04 03:20:46;;;;;;;27.17;13.83;;;1.70;99.90;;;;;;4158528;28;20267;-64
2021/04/04 03:22:49;;;;;;;29.80;14.33;;;1.70;99.90;;;;;;4157528;28;20271;-64
2021/04/04 03:24:52;;;;;;;27.80;14.23;;;1.70;99.90;;;;;;4157872;28;20271;-66
2021/04/04 03:26:54;;;;;;;22.83;13.50;;;1.70;99.90;;;;;;4156119;28;20309;-64
2021/04/04 03:28:56;;;;;;;32.83;15.20;;;1.70;99.90;;;;;;4157956;28;20266;-65
2021/04/04 03:30:58;;;;;;;26.30;14.10;;;1.60;99.90;;;;;;4158123;28;20656;-63
2021/04/04 03:33:05;;;;;;;24.90;14.30;;;1.60;99.90;;;;;;4156987;28;20266;-63
2021/04/04 03:35:07;;;;;;;26.97;14.27;;;1.60;99.90;;;;;;4155572;28;20287;-64
2021/04/04 03:37:09;;;;;;;22.53;13.03;;;1.60;99.90;;;;;;4157196;28;20308;-63
2021/04/04 03:39:11;;;;;;;26.90;14.10;;;1.50;99.90;;;;;;4158665;28;20332;-65
2021/04/04 03:41:13;;;;;;;29.60;15.27;;;1.50;99.90;;;;;;4157311;28;20275;-65
2021/04/04 03:43:25;;;;;;;25.27;13.40;;;1.50;99.90;;;;;;4158399;28;20931;-65
2021/04/04 03:45:26;;;;;;;22.70;13.43;;;1.50;99.90;;;;;;4156896;28;20345;-64
2021/04/04 03:47:28;;;;;;;25.27;12.57;;;1.50;99.90;;;;;;4158441;28;20608;-64
2021/04/04 03:49:31;;;;;;;24.10;13.83;;;1.50;99.90;;;;;;4156570;28;20267;-64
2021/04/04 03:51:33;;;;;;;24.20;13.70;;;1.40;99.90;;;;;;4158578;28;20306;-65
2021/04/04 03:53:38;;;;;;;29.47;13.93;;;1.40;99.90;;;;;;4157038;28;20313;-65
2021/04/04 03:55:43;;;;;;;24.87;13.77;;;1.40;99.90;;;;;;4158200;28;20259;-65
2021/04/04 03:57:47;;;;;;;22.47;12.83;;;1.40;99.90;;;;;;4157182;28;20933;-64
2021/04/04 03:59:48;;;;;;;24.33;13.10;;;1.40;99.90;;;;;;4158049;28;20433;-64
2021/04/04 04:01:51;;;;;;;24.40;13.10;;;1.30;99.90;;;;;;4156947;28;20262;-65
2021/04/04 04:03:55;;;;;;;28.13;14.50;;;1.30;99.90;;;;;;4157596;28;20844;-65
2021/04/04 04:05:57;;;;;;;25.17;14.10;;;1.30;99.90;;;;;;4157355;28;20270;-65
2021/04/04 04:08:01;;;;;;;26.90;15.00;;;1.30;99.90;;;;;;4157050;28;20266;-65
2021/04/04 04:10:04;;;;;;;22.83;12.97;;;1.30;99.90;;;;;;4157438;28;20739;-64
2021/04/04 04:12:07;;;;;;;26.27;14.53;;;1.30;99.90;;;;;;4157395;28;20360;-65
2021/04/04 04:14:12;;;;;;;25.97;14.10;;;1.40;99.90;;;;;;4156152;28;20795;-64
2021/04/04 04:16:15;;;;;;;26.93;13.97;;;1.40;99.90;;;;;;4156844;28;20324;-64
2021/04/04 04:18:16;;;;;;;27.87;15.33;;;1.40;99.90;;;;;;4157577;28;20401;-65
2021/04/04 04:20:18;;;;;;;26.33;14.63;;;1.50;99.90;;;;;;4156491;28;20286;-66
2021/04/04 04:22:21;;;;;;;27.90;13.43;;;1.70;99.90;;;;;;4158184;28;21156;-64
2021/04/04 04:24:23;;;;;;;24.00;13.20;;;2.00;99.90;;;;;;4155953;28;20270;-63
2021/04/04 04:26:25;;;;;;;26.57;13.93;;;2.20;99.90;;;;;;4158086;28;21007;-64
2021/04/04 04:28:27;;;;;;;28.77;14.00;;;2.50;99.90;;;;;;4156278;28;20317;-64
2021/04/04 04:30:28;;;;;;;25.07;14.40;;;2.70;99.90;;;;;;4156590;28;20283;-65
2021/04/04 04:32:30;;;;;;;24.20;13.37;;;3.00;99.90;;;;;;4155662;28;20317;-65
2021/04/04 04:34:32;;;;;;;27.57;13.87;;;3.20;99.90;;;;;;4157856;28;20270;-65
2021/04/04 04:36:35;;;;;;;24.40;13.37;;;3.50;99.90;;;;;;4155928;28;20258;-65
2021/04/04 04:38:39;;;;;;;25.10;14.07;;;3.90;99.90;;;;;;4156336;28;20271;-64
2021/04/04 04:40:41;;;;;;;21.53;12.33;;;4.30;99.90;;;;;;4156171;28;20259;-64
2021/04/04 04:42:47;;;;;;;20.43;13.27;;;4.50;99.90;;;;;;4156854;28;20278;-66
2021/04/04 04:44:50;;;;;;;20.80;12.53;;;4.90;99.90;;;;;;4155953;28;20258;-65
2021/04/04 04:46:52;;;;;;;23.47;13.40;;;5.20;99.90;;;;;;4156557;28;20271;-64
2021/04/04 04:48:54;;;;;;;24.30;13.87;;;5.60;99.90;;;;;;4156899;28;20279;-64
2021/04/04 04:50:55;;;;;;;25.90;12.90;;;6.00;99.90;;;;;;4156360;28;20283;-66
2021/04/04 04:52:58;;;;;;;25.10;13.70;;;6.40;99.90;;;;;;4157095;28;20681;-65
2021/04/04 04:54:59;;;;;;;20.47;13.17;;;6.80;99.90;;;;;;4156181;28;20329;-65
2021/04/04 04:57:01;;;;;;;21.50;12.77;;;7.10;99.90;;;;;;4157336;28;20262;-65
2021/04/04 04:59:05;;;;;;;25.53;13.37;;;7.20;99.90;;;;;;4155256;28;20057;-65
2021/04/04 05:01:09;;;;;;;20.80;11.77;;;7.40;99.90;;;;;;4156838;28;20309;-65
2021/04/04 05:03:11;;;;;;;20.83;12.97;;;7.70;99.90;;;;;;4155671;28;20095;-65
2021/04/04 05:05:13;;;;;;;23.40;13.17;;;8.00;99.90;;;;;;4157642;28;20779;-65
2021/04/04 05:07:20;;;;;;;22.20;11.77;;;8.30;99.90;;;;;;4155536;28;20029;-65
2021/04/04 05:09:23;;;;;;;20.93;12.10;;;8.60;99.90;;;;;;4157135;28;20029;-65
2021/04/04 05:11:26;;;;;;;18.47;11.17;;;8.80;99.90;;;;;;4155476;28;20127;-64
2021/04/04 05:13:27;;;;;;;21.13;12.17;;;9.00;99.90;;;;;;4154878;28;20049;-62
2021/04/04 05:15:29;;;;;;;18.27;12.17;;;9.10;99.90;;;;;;4155849;28;20103;-64
2021/04/04 05:17:34;;;;;;;20.03;12.00;;;9.50;99.90;;;;;;4156671;28;20063;-64
2021/04/04 05:19:35;;;;;;;21.80;12.03;;;9.60;99.90;;;;;;4155370;28;20049;-66
2021/04/04 05:21:39;;;;;;;18.93;11.83;;;9.80;99.90;;;;;;4156853;28;20030;-65
2021/04/04 05:23:41;;;;;;;21.83;12.87;;;10.00;99.90;;;;;;4156239;28;20080;-66
2021/04/04 05:25:44;;;;;;;18.73;11.43;;;10.50;99.90;;;;;;4156072;28;20091;-64
2021/04/04 05:27:45;;;;;;;20.03;12.93;;;10.80;99.90;;;;;;4156661;28;20047;-64
2021/04/04 05:29:46;;;;;;;20.90;11.50;;;11.00;99.40;;;;;;4155831;28;20080;-65
2021/04/04 05:31:52;;;;;;;19.57;11.37;;;11.20;98.80;;;;;;4155998;28;20115;-66
2021/04/04 05:33:54;;;;;;;19.83;11.63;;;11.50;97.60;;;;;;4155545;28;20033;-64
2021/04/04 05:35:55;;;;;;;19.30;11.80;;;11.60;96.30;;;;;;4156745;28;20048;-65
2021/04/04 05:37:56;;;;;;;17.33;11.63;;;11.80;95.80;;;;;;4155336;28;20083;-65
2021/04/04 05:39:57;;;;;;;17.17;11.77;;;12.00;94.50;;;;;;4156374;28;20575;-64
2021/04/04 05:42:00;;;;;;;18.17;11.87;;;12.10;93.70;;;;;;4154436;28;20437;-65
2021/04/04 05:44:05;;;;;;;19.67;10.97;;;12.20;93.10;;;;;;4156175;28;20545;-65
2021/04/04 05:46:17;;;;;;;16.10;10.97;;;12.40;92.30;;;;;;4154220;28;20032;-65
2021/04/04 05:48:40;;;;;;;19.10;11.53;;;12.70;91.50;;;;;;4156349;28;20033;-65
2021/04/04 05:51:13;;;;;;;17.57;10.37;;;13.10;86.30;;;;;;4155242;28;20030;-65
2021/04/04 05:53:39;;;;;;;19.87;11.97;;;13.10;83.60;;;;;;4148469;28;20153;-64
2021/04/04 05:56:07;;;;;;;18.63;11.27;;;13.00;86.00;;;;;;4155545;28;20034;-65
2021/04/04 05:58:15;;;;;;;16.90;10.47;;;13.40;82.50;;;;;;4155726;28;20029;-66
2021/04/04 06:00:18;;;;;;;15.73;10.70;;;13.80;84.30;;;;;;4155368;28;20429;-66
2021/04/04 06:02:43;;;;;;;18.87;11.23;;;13.90;82.40;;;;;;4155283;28;20468;-66
2021/04/04 06:05:09;;;;;;;16.33;10.67;;;14.00;79.60;;;;;;4155674;28;20091;-64
2021/04/04 06:07:50;;;;;;;15.67;9.83;;;14.10;76.50;;;;;;4155056;28;20091;-64
2021/04/04 06:10:16;;;;;;;13.97;9.17;;;13.70;76.40;;;;;;4156316;28;20041;-65
2021/04/04 06:12:28;;;;;;;13.07;9.50;;;13.60;77.40;;;;;;4155213;28;20038;-66
2021/04/04 06:14:47;;;;;;;14.67;9.73;;;13.80;77.00;;;;;;4156307;28;20033;-64
2021/04/04 06:17:02;;;;;;;15.00;9.93;;;13.70;77.10;;;;;;4155099;28;20034;-64
2021/04/04 06:19:25;;;;;;;12.97;8.97;;;13.60;76.00;;;;;;4155823;28;20080;-65
2021/04/04 06:21:34;;;;;;;14.97;10.23;;;13.60;74.30;;;;;;4155077;28;20025;-67
2021/04/04 06:24:05;;;;;;;15.20;9.73;;;13.50;77.40;;;;;;4155446;28;20083;-63
2021/04/04 06:26:27;;;;;;;15.57;9.97;;;13.40;74.80;;;;;;4154888;28;20030;-64
2021/04/04 06:28:54;;;;;;;13.73;9.40;;;13.60;76.20;;;;;;4154834;28;20026;-65
2021/04/04 06:31:04;;;;;;;11.87;8.77;;;13.90;73.80;;;;;;4156160;28;20433;-66
2021/04/04 06:33:24;;;;;;;16.13;9.73;;;13.80;74.50;;;;;;4154194;28;20029;-66
2021/04/04 06:35:53;;;;;;;12.63;8.88;;;14.10;74.10;;;;;;4155987;28;20037;-66
2021/04/04 06:38:25;;;;;;;12.30;8.97;;;14.00;73.70;;;;;;4144484;28;20084;-65
2021/04/04 06:40:46;;;;;;;11.97;8.30;;;14.20;72.90;;;;;;4155562;28;20556;-65
2021/04/04 06:42:53;;;;;;;14.73;8.60;;;14.30;71.00;;;;;;4154650;28;20824;-65
2021/04/04 06:45:25;;;;;;;14.97;8.60;;;14.10;72.50;;;;;;4156260;28;20064;-65
2021/04/04 06:48:00;;;;;;;13.43;8.77;;;14.40;72.00;;;;;;4154750;28;20895;-66
2021/04/04 06:50:18;;;;;;;14.30;9.10;;;14.60;68.90;;;;;;4155477;28;20030;-68
2021/04/04 06:52:56;;;;;;;17.50;9.40;;;14.90;71.00;;;;;;4155021;28;20033;-67
2021/04/04 06:55:11;;;;;;;14.13;8.50;;;15.00;68.10;;;;;;4154810;28;20483;-65
2021/04/04 06:57:50;;;;;;;18.00;9.13;;;14.60;69.50;;;;;;4156422;28;20458;-67
2021/04/04 07:00:04;;;;;;;19.00;9.77;;;14.60;68.90;;;;;;4156132;28;20041;-66
2021/04/04 07:02:07;;;;;;;17.40;10.03;;;14.50;70.50;;;;;;4158804;28;20025;-66
2021/04/04 07:04:30;;;;;;;16.70;10.50;;;14.70;71.20;;;;;;4157288;28;20549;-65
2021/04/04 07:06:50;;;;;;;18.10;10.67;;;15.10;70.20;;;;;;4158764;28;20025;-65
2021/04/04 07:08:57;;;;;;;14.97;9.50;;;15.20;69.50;;;;;;4156704;28;20552;-65
2021/04/04 07:11:24;;;;;;;14.43;9.10;;;15.10;68.50;;;;;;4158782;28;20033;-64
2021/04/04 07:13:40;;;;;;;9.83;6.63;;;14.90;68.00;;;;;;4156643;28;20040;-65
2021/04/04 07:16:15;;;;;;;12.40;8.20;;;14.30;67.60;;;;;;4158215;28;20087;-66
2021/04/04 07:18:41;;;;;;;10.90;7.30;;;12.90;67.30;;;;;;4158077;28;20025;-66
2021/04/04 07:20:43;;;;;;;12.03;7.70;;;11.70;72.00;;;;;;4156909;28;20440;-65
2021/04/04 07:23:08;;;;;;;11.30;7.27;;;11.40;75.00;;;;;;4156139;28;20037;-65
2021/04/04 07:25:37;;;;;;;10.37;7.10;;;11.20;75.20;;;;;;4155583;28;20080;-69
2021/04/04 07:27:53;;;;;;;6.90;5.83;;;11.30;76.40;;;;;;4153451;28;20037;-65
2021/04/04 07:30:29;;;;;;;11.70;7.43;;;11.90;76.10;;;;;;4141426;28;20034;-66
2021/04/04 07:32:46;;;;;;;9.83;6.67;;;12.60;73.60;;;;;;4152928;28;20099;-64
2021/04/04 07:34:58;;;;;;;8.13;5.47;;;12.20;70.50;;;;;;4157416;28;20073;-64
2021/04/04 07:37:23;;;;;;;13.00;6.10;;;11.70;72.80;;;;;;4157342;28;20514;-66
2021/04/04 07:39:33;;;;;;;10.17;5.67;;;10.90;74.70;;;;;;4157216;28;20038;-64
2021/04/04 07:41:47;;;;;;;9.05;5.95;;;10.50;76.40;;;;;;4158212;28;20045;-64
2021/04/04 07:44:00;;;;;;;8.17;5.30;;;10.90;76.30;;;;;;4157085;28;20071;-64
2021/04/04 07:46:06;;;;;;;6.97;5.10;;;11.40;75.30;;;;;;4141496;28;20090;-63
2021/04/04 07:48:22;;;;;;;11.00;5.20;;;11.90;75.10;;;;;;4140628;28;20038;-64
2021/04/04 07:50:33;;;;;;;9.50;5.57;;;11.60;71.60;;;;;;4140988;28;20068;-63
2021/04/04 07:52:46;;;;;;;7.25;4.65;;;10.90;72.50;;;;;;4140882;28;20080;-64
2021/04/04 07:55:01;;;;;;;9.10;5.73;;;10.50;73.60;;;;;;4141052;28;20160;-63
2021/04/04 07:57:43;;;;;;;9.70;5.40;;;10.50;73.00;;;;;;4140690;28;20061;-68
2021/04/04 07:59:55;;;;;;;9.23;5.37;;;10.60;72.30;;;;;;4129875;28;20057;-73
2021/04/04 08:02:20;;;;;;;9.50;5.50;;;11.00;72.70;;;;;;4141866;28;20042;-63
2021/04/04 08:04:54;;;;;;;10.57;5.87;;;11.50;72.30;;;;;;4140481;28;20083;-67
2021/04/04 08:07:07;;;;;;;7.67;5.80;;;11.30;70.60;;;;;;4134978;28;20481;-63
2021/04/04 08:09:12;;;;;;;9.00;6.23;;;10.80;72.30;;;;;;4140445;28;20459;-64
2021/04/04 08:11:13;;;;;;;9.60;5.80;;;10.60;73.10;;;;;;4140925;28;20088;-68
2021/04/04 08:13:26;;;;;;;10.77;6.50;;;10.60;74.00;;;;;;4140707;28;20481;-62
2021/04/04 08:15:40;;;;;;;9.33;6.50;;;10.60;71.80;;;;;;4140478;28;20088;-63
2021/04/04 08:17:41;;;;;;;9.80;6.60;;;10.60;72.70;;;;;;4140189;28;20029;-65
2021/04/04 08:19:47;;;;;;;12.67;6.63;;;10.90;73.40;;;;;;4141680;28;20034;-62
2021/04/04 08:22:00;;;;;;;9.20;6.83;;;11.10;73.40;;;;;;4156472;28;20022;-63
2021/04/04 08:24:40;;;;;;;10.27;6.73;;;10.90;72.70;;;;;;4157945;28;20375;-66
2021/04/04 08:27:11;;;;;;;9.90;7.07;;;10.70;72.90;;;;;;4144359;28;20045;-67
2021/04/04 08:29:24;;;;;;;10.70;7.47;;;10.50;72.70;;;;;;4156567;28;20030;-60
2021/04/04 08:31:48;;;;;;;11.57;6.80;;;10.60;73.10;;;;;;4156143;28;20053;-60
2021/04/04 08:34:17;;;;;;;8.40;6.87;;;10.70;73.30;;;;;;4157392;28;20037;-61
2021/04/04 08:36:22;;;;;;;10.03;6.80;;;10.60;73.70;;;;;;4157921;28;20029;-63
2021/04/04 08:38:34;;;;;;;9.40;6.90;;;10.40;73.50;;;;;;4156229;28;20045;-62
2021/04/04 08:40:38;;;;;;;11.03;6.63;;;10.30;71.90;;;;;;4157192;28;20045;-64
2021/04/04 08:42:42;;;;;;;12.10;6.90;;;10.20;72.20;;;;;;4156179;28;20594;-61
2021/04/04 08:44:50;;;;;;;9.30;6.50;;;10.40;70.90;;;;;;4156918;28;20029;-61
2021/04/04 08:47:10;;;;;;;11.03;7.47;;;10.60;71.30;;;;;;4156597;28;20049;-61
2021/04/04 08:49:12;;;;;;;13.02;7.57;;;11.00;70.10;;;;;;4170713;28;20102;-62
2021/04/04 08:51:17;;;;;;;9.80;7.10;;;11.10;70.00;;;;;;4165476;28;20025;-64
2021/04/04 08:53:18;;;;;;;11.67;7.30;;;10.80;70.60;;;;;;4156124;28;20083;-62
2021/04/04 08:55:23;;;;;;;13.07;8.00;;;11.00;71.40;;;;;;4156167;28;20025;-61
2021/04/04 08:57:51;;;;;;;11.67;7.70;;;11.10;71.20;;;;;;4155062;28;20103;-62
2021/04/04 08:59:54;;;;;;;11.97;8.23;;;11.00;69.70;;;;;;4154310;28;20072;-64
2021/04/04 09:02:05;;;;;;;10.77;7.80;;;10.70;71.00;;;;;;4156520;28;20438;-62
2021/04/04 09:04:08;;;;;;;11.60;8.00;;;10.20;70.70;;;;;;4156390;28;20425;-64
2021/04/04 09:06:10;;;;;;;12.53;7.83;;;10.10;72.50;;;;;;4156916;28;20029;-64
2021/04/04 09:08:13;;;;;;;12.30;8.43;;;10.30;71.90;;;;;;4157309;28;20025;-63
2021/04/04 09:10:16;;;;;;;9.50;7.80;;;10.20;71.60;;;;;;4156541;28;20037;-63
2021/04/04 09:12:19;;;;;;;12.23;7.27;;;10.10;70.70;;;;;;4156305;28;20033;-63
2021/04/04 09:14:23;;;;;;;11.83;6.43;;;9.90;71.20;;;;;;4154601;28;20042;-63
2021/04/04 09:16:24;;;;;;;10.23;7.03;;;9.90;69.60;;;;;;4156488;28;20021;-63
2021/04/04 09:18:26;;;;;;;11.60;6.63;;;9.80;69.10;;;;;;4155530;28;20037;-63
2021/04/04 09:20:38;;;;;;;12.60;6.77;;;9.70;68.70;;;;;;4156731;28;20436;-62
2021/04/04 09:22:48;;;;;;;10.53;7.00;;;9.50;67.80;;;;;;4139071;28;20104;-64
2021/04/04 09:25:10;;;;;;;12.38;7.25;;;9.70;68.30;;;;;;4140758;28;20383;-63
2021/04/04 09:27:13;;;;;;;11.07;7.20;;;9.70;69.70;;;;;;4138823;28;20119;-63
2021/04/04 09:29:15;;;;;;;11.47;6.70;;;9.50;70.80;;;;;;4140064;28;20490;-63
2021/04/04 09:31:21;;;;;;;10.83;7.13;;;9.50;72.10;;;;;;4138631;28;20104;-63
2021/04/04 09:33:30;;;;;;;11.27;7.17;;;9.50;71.40;;;;;;4140763;28;20026;-61
2021/04/04 09:35:31;;;;;;;11.00;7.00;;;9.60;72.30;;;;;;4139320;28;20084;-63
2021/04/04 09:37:34;;;;;;;13.20;7.53;;;9.70;72.00;;;;;;4140774;28;20057;-63
2021/04/04 09:39:38;;;;;;;11.43;6.97;;;9.80;72.30;;;;;;4138960;28;20635;-63
2021/04/04 09:41:40;;;;;;;11.57;7.23;;;9.80;72.60;;;;;;4140378;28;20046;-63
2021/04/04 09:43:57;;;;;;;9.67;7.00;;;9.80;73.10;;;;;;4139591;28;20127;-63
2021/04/04 09:46:04;;;;;;;10.03;7.47;;;9.80;71.70;;;;;;4140628;28;20084;-63
2021/04/04 09:48:20;;;;;;;9.07;6.63;;;9.90;72.20;;;;;;4138842;28;20092;-63
2021/04/04 09:50:21;;;;;;;11.17;6.97;;;10.30;72.20;;;;;;4140059;28;20104;-65
2021/04/04 09:52:28;;;;;;;7.57;5.80;;;10.50;70.70;;;;;;4139200;28;20092;-63
2021/04/04 09:54:29;;;;;;;14.53;7.30;;;10.60;69.40;;;;;;4141524;28;20034;-63
2021/04/04 09:56:32;;;;;;;10.57;6.20;;;10.50;70.10;;;;;;4139415;28;20030;-64
2021/04/04 09:58:33;;;;;;;8.27;6.50;;;10.40;70.00;;;;;;4140477;28;20041;-64
2021/04/04 10:00:39;;;;;;;11.13;6.20;;;10.20;70.30;;;;;;4139078;28;20049;-63
2021/04/04 10:02:41;;;;;;;10.27;6.67;;;10.30;71.20;;;;;;4139744;28;20038;-63
2021/04/04 10:04:45;;;;;;;8.57;6.53;;;10.50;71.20;;;;;;4138743;28;20029;-66
2021/04/04 10:06:59;;;;;;;8.83;6.57;;;10.40;72.40;;;;;;4139471;28;20507;-64
2021/04/04 10:09:05;;;;;;;8.07;6.47;;;10.50;71.70;;;;;;4137526;28;20045;-64
2021/04/04 10:11:15;;;;;;;10.23;6.10;;;10.40;71.20;;;;;;4139475;28;20123;-64
2021/04/04 10:13:17;;;;;;;8.63;5.78;;;10.40;70.20;;;;;;4137633;28;20053;-63
2021/04/04 10:15:19;;;;;;;6.90;5.27;;;10.20;69.70;;;;;;4139166;28;20479;-65
2021/04/04 10:17:20;;;;;;;6.77;5.43;;;9.90;69.90;;;;;;4155662;28;20437;-62
2021/04/04 10:19:21;;;;;;;9.67;6.10;;;9.90;70.60;;;;;;4155351;28;20083;-63
2021/04/04 10:21:22;;;;;;;9.13;5.50;;;9.90;70.70;;;;;;4156222;28;20141;-62
2021/04/04 10:23:34;;;;;;;6.73;4.63;;;10.00;70.70;;;;;;4155445;28;20500;-62
2021/04/04 10:25:37;;;;;;;8.90;5.57;;;10.20;70.80;;;;;;4156348;28;20107;-65
2021/04/04 10:27:38;;;;;;;9.40;6.27;;;10.40;70.60;;;;;;4154962;28;20777;-61
2021/04/04 10:29:39;;;;;;;6.67;5.27;;;10.20;70.30;;;;;;4156548;28;20041;-66
2021/04/04 10:31:49;;;;;;;7.13;5.30;;;9.90;70.90;;;;;;4154585;28;20571;-63
2021/04/04 10:34:01;;;;;;;7.07;5.40;;;10.10;71.00;;;;;;4154749;28;20474;-63
2021/04/04 10:36:15;;;;;;;6.97;5.17;;;10.10;71.00;;;;;;4158243;28;20103;-63
2021/04/04 10:38:19;;;;;;;6.67;5.23;;;10.10;71.20;;;;;;4141863;28;20465;-63
2021/04/04 10:40:20;;;;;;;7.83;5.87;;;10.00;70.90;;;;;;4158080;28;20042;-63
2021/04/04 10:42:22;;;;;;;9.67;4.90;;;10.00;70.80;;;;;;4159602;28;20091;-63
2021/04/04 10:44:24;;;;;;;7.10;5.03;;;9.80;70.70;;;;;;4158047;28;20091;-66
2021/04/04 10:46:30;;;;;;;7.33;5.00;;;9.90;71.20;;;;;;4159282;28;20037;-63
2021/04/04 10:48:37;;;;;;;6.50;5.00;;;9.90;70.50;;;;;;4157673;28;20075;-63
2021/04/04 10:50:38;;;;;;;7.93;5.53;;;10.00;70.60;;;;;;4158742;28;20042;-64
2021/04/04 10:52:41;;;;;;;7.30;5.17;;;10.10;69.80;;;;;;4157837;28;20115;-63
2021/04/04 10:54:43;;;;;;;7.47;4.90;;;10.20;69.30;;;;;;4159133;28;20415;-63
2021/04/04 10:56:44;;;;;;;9.23;4.77;;;10.20;69.60;;;;;;4157893;28;20084;-65